Share

Hibbing, MN

Chisholm-hibbing (KHIB) Elev 1352 ft | 47.39 °N, 92.84 °W | Change Station

Current weather conditions updated 48 minutes ago

Overcast
Overcast
35 °F
Feels Like 28 °F
N
9
Wind Variable Wind from North
Sunrise 6:19 AM
Sunset 8:03 PM
Moon Waning Gibbous

Tomorrow is forecast to be Much Warmer than today. Wintry mix late tomorrow night.

Pressure 30.32 in
Visibility 10.0 miles
Clouds Overcast 3400 ft
Windchill 28 °F
Dew Point 21 °F
Humidity 57%
Rainfall 0.00 in
Snow Depth Not available.
UV 0 out of 16
Pollen 2.80 out of 12
Air Quality Not available.
Flu Activity Sporadic
METAR KHIB 172353Z AUTO 35008KT 10SM OVC034 02/M06 A3026 RMK AO2 SLP268 T00171061 10028 20017 51006

More Conditions Fewer Conditions

Pressure 30.32 in
Visibility 10.0 miles
Clouds Overcast 3400 ft
Windchill 28 °F
Dew Point 21 °F
Humidity 57%
Rainfall 0.00 in
Snow Depth Not available.
UV 0 out of 16
Pollen 2.80 out of 12
Air Quality Not available.
Flu Activity Sporadic
METAR KHIB 172353Z AUTO 35008KT 10SM OVC034 02/M06 A3026 RMK AO2 SLP268 T00171061 10028 20017 51006

More Conditions Fewer Conditions

10-Day Forecast

Almanac

Astronomy

Apr. 17, 2014 Rise Set
Actual Time 6:19 AM CDT 8:03 PM CDT
Civil Twilight 5:46 AM CDT 8:36 PM CDT
Nautical Twilight 5:07 AM CDT 9:16 PM CDT
Astronomical Twilight 4:24 AM CDT 9:59 PM CDT
Moon 10:58 PM CDT (4/17) 7:44 AM CDT (4/17)
Length of Visible Light 14h 49m
Length of Day
13h 44m
Tomorrow will be 3m 15s longer.
Waning Gibbous, 91% of the Moon is Illuminated
Today
Waning Gibbous
Apr 22
Last Quarter
Apr 29
New
May 6
First Quarter
May 14
Full

Today's Extremes

State Highs State Lows

Community

  • Morning Light
    Morning Light
  • New Day
    New Day
  • Lake Michigan Sunrise
    Lake Michigan Sunrise
  • sunset from izmir, narlıdere
    sunset from izmir, narlıdere
  • oregon cherry
    oregon cherry

WunderPhotos

Upload Photos

1,702,189 photos uploaded!

WunderBlogs® & News

Nearby

Snow Depth

Station Depth Elevation
No new snow has been reported.

Coastal Water Temperatures

Place Temperature
No Stations Reporting

Earthquake Activity

City Distance Mag. Time & Date
No recent earthquake activity has been reported nearby.
Minimum magnitude displayed is 2.5.

Nearby Weather Stations

Station Location Temp. Windchill Dew Point Humidity Wind Precip. Elev Updated Type
RAWS HIBBING MN, Hibbing, MN 35 °F 29 °F 21 °F 57% NW  at  7 mph 0.00 in / hr 1350 ft 6:07 PM CDT MADIS

Show More Stations Show Fewer Stations

What do you think?

We're not finished. Please let us know what you like, what you don't like, and what you are still missing.